createdAt,value
2019-05-03T00:00:42.524Z,94854.16
2019-05-03T00:02:16.585Z,94859.28
2019-05-03T00:03:20.168Z,94856.95
2019-05-03T00:04:23.699Z,94848.67
2019-05-03T00:05:32.443Z,94849.00
2019-05-03T00:06:36.061Z,94851.51
2019-05-03T00:07:39.590Z,94856.77
2019-05-03T00:08:43.257Z,94845.75
2019-05-03T00:09:47.031Z,94843.25
2019-05-03T00:10:51.774Z,94849.37
2019-05-03T00:11:55.324Z,94841.44
2019-05-03T00:12:58.790Z,94846.11
2019-05-03T00:14:02.295Z,94841.44
2019-05-03T00:15:17.557Z,94843.78
2019-05-03T00:16:32.534Z,94844.59
2019-05-03T00:17:36.099Z,94838.75
2019-05-03T00:18:39.568Z,94835.76
2019-05-03T00:19:43.076Z,94839.30
2019-05-03T00:20:46.604Z,94843.64
2019-05-03T00:21:50.052Z,94838.45
2019-05-03T00:22:53.555Z,94835.81
2019-05-03T00:23:57.060Z,94837.09
2019-05-03T00:25:05.882Z,94840.73
2019-05-03T00:26:05.787Z,94842.95
2019-05-03T00:27:09.227Z,94833.45
2019-05-03T00:28:13.291Z,94835.48
2019-05-03T00:29:16.849Z,94835.97
2019-05-03T00:30:22.413Z,94844.45
2019-05-03T00:31:25.451Z,94837.59
2019-05-03T00:32:29.555Z,94841.70
2019-05-03T00:33:33.128Z,94835.48
2019-05-03T00:34:55.780Z,94834.97
2019-05-03T00:36:12.520Z,94835.38
2019-05-03T00:37:22.072Z,94838.97
2019-05-03T00:38:25.747Z,94832.19
2019-05-03T00:39:32.474Z,94837.74
2019-05-03T00:40:36.115Z,94834.72
2019-05-03T00:41:39.782Z,94839.42
2019-05-03T00:42:43.163Z,94833.61
2019-05-03T00:43:46.645Z,94834.34
2019-05-03T00:44:51.683Z,94832.80
2019-05-03T00:45:55.186Z,94829.00
2019-05-03T00:46:58.685Z,94835.63
2019-05-03T00:48:02.200Z,94825.87
2019-05-03T00:49:05.766Z,94832.90
2019-05-03T00:50:09.328Z,94829.86
2019-05-03T00:51:12.856Z,94830.77
2019-05-03T00:52:16.303Z,94835.20
2019-05-03T00:53:19.818Z,94828.85
2019-05-03T00:54:23.326Z,94827.53
2019-05-03T00:55:26.757Z,94829.75
2019-05-03T00:56:32.056Z,94831.06
2019-05-03T00:57:35.682Z,94831.37
2019-05-03T00:58:49.820Z,94832.77
2019-05-03T00:59:53.263Z,94827.84
2019-05-03T01:00:56.771Z,94825.56
2019-05-03T01:02:02.529Z,94825.27
2019-05-03T01:03:05.514Z,94823.88
2019-05-03T01:04:09.023Z,94817.47
2019-05-03T01:05:12.692Z,94822.12
2019-05-03T01:06:16.188Z,94819.36
2019-05-03T01:07:19.816Z,94821.64
2019-05-03T01:08:23.251Z,94818.99
2019-05-03T01:09:27.923Z,94819.10
2019-05-03T01:10:33.055Z,94820.23
2019-05-03T01:11:36.650Z,94820.41
2019-05-03T01:12:41.635Z,94822.45
2019-05-03T01:13:45.093Z,94815.28
2019-05-03T01:14:51.563Z,94819.20
2019-05-03T01:16:05.519Z,94819.84
2019-05-03T01:17:09.018Z,94813.62
2019-05-03T01:18:14.177Z,94815.83
2019-05-03T01:19:17.678Z,94814.55
2019-05-03T01:20:22.568Z,94810.78
2019-05-03T01:21:26.035Z,94810.17
2019-05-03T01:22:29.505Z,94809.14
2019-05-03T01:23:32.939Z,94810.30
2019-05-03T01:24:37.299Z,94809.20
2019-05-03T01:25:42.760Z,94801.58
2019-05-03T01:26:46.733Z,94807.19
2019-05-03T01:27:52.038Z,94808.69
2019-05-03T01:28:55.934Z,94805.27
2019-05-03T01:29:59.540Z,94806.23
2019-05-03T01:31:03.356Z,94805.78
2019-05-03T01:32:07.410Z,94808.20
2019-05-03T01:33:12.127Z,94810.27
2019-05-03T01:34:15.759Z,94810.36
2019-05-03T01:35:19.200Z,94813.24
2019-05-03T01:36:23.220Z,94811.13
2019-05-03T01:37:27.368Z,94808.34
2019-05-03T01:38:31.989Z,94810.97
2019-05-03T01:39:35.793Z,94813.45
2019-05-03T01:40:41.783Z,94807.44
2019-05-03T01:41:44.849Z,94810.07
2019-05-03T01:42:48.528Z,94813.13
2019-05-03T01:43:52.762Z,94807.48
2019-05-03T01:44:56.325Z,94810.27
2019-05-03T01:46:02.503Z,94806.16
2019-05-03T01:47:07.702Z,94814.97
2019-05-03T01:48:15.734Z,94809.91
2019-05-03T01:49:36.913Z,94807.63
2019-05-03T01:51:00.406Z,94811.34
2019-05-03T01:52:12.798Z,94810.56
2019-05-03T01:53:21.640Z,94809.51
2019-05-03T01:54:25.416Z,94812.64
2019-05-03T01:55:43.923Z,94811.42
2019-05-03T01:56:39.695Z,94810.09
2019-05-03T01:57:43.381Z,94813.98
2019-05-03T01:58:46.981Z,94816.26
2019-05-03T01:59:52.103Z,94814.37
2019-05-03T02:00:57.419Z,94805.04
2019-05-03T02:02:17.390Z,94804.33
2019-05-03T02:03:38.961Z,94809.25
2019-05-03T02:04:44.057Z,94808.48
2019-05-03T02:05:49.631Z,94801.52
2019-05-03T02:06:53.404Z,94811.41
2019-05-03T02:07:56.912Z,94813.47
2019-05-03T02:09:01.609Z,94806.91
2019-05-03T02:10:08.148Z,94810.07
2019-05-03T02:11:11.721Z,94802.58
2019-05-03T02:12:15.101Z,94806.96
2019-05-03T02:13:18.612Z,94804.13
2019-05-03T02:14:22.233Z,94813.08
2019-05-03T02:15:25.802Z,94807.38
2019-05-03T02:16:29.299Z,94814.20
2019-05-03T02:17:32.729Z,94807.82
2019-05-03T02:18:36.224Z,94806.30
2019-05-03T02:19:39.698Z,94801.02
2019-05-03T02:20:43.127Z,94802.12
2019-05-03T02:21:46.637Z,94802.97
2019-05-03T02:22:52.060Z,94801.27
2019-05-03T02:23:55.236Z,94802.53
2019-05-03T02:24:58.696Z,94805.20
2019-05-03T02:26:03.078Z,94803.23
2019-05-03T02:27:06.639Z,94805.64
2019-05-03T02:28:10.215Z,94807.88
2019-05-03T02:29:13.717Z,94806.16
2019-05-03T02:30:17.332Z,94811.38
2019-05-03T02:31:23.195Z,94807.83
2019-05-03T02:32:25.975Z,94803.89
2019-05-03T02:33:29.417Z,94806.90
2019-05-03T02:34:32.988Z,94811.73
2019-05-03T02:35:36.485Z,94801.92
2019-05-03T02:36:42.544Z,94810.91
2019-05-03T02:37:46.773Z,94806.47
2019-05-03T02:38:50.278Z,94807.38
2019-05-03T02:39:56.202Z,94816.31
2019-05-03T02:41:02.733Z,94812.22
2019-05-03T02:42:10.906Z,94812.81
2019-05-03T02:43:11.728Z,94810.00
2019-05-03T02:44:16.864Z,94809.53
2019-05-03T02:45:22.089Z,94803.08
2019-05-03T02:46:35.860Z,94805.09
2019-05-03T02:47:40.090Z,94805.04
2019-05-03T02:48:57.204Z,94813.05
2019-05-03T02:50:02.284Z,94805.73
2019-05-03T02:51:06.561Z,94801.42
2019-05-03T02:52:11.805Z,94806.23
2019-05-03T02:53:15.843Z,94803.44
2019-05-03T02:54:19.310Z,94801.66
2019-05-03T02:55:25.733Z,94796.81
2019-05-03T02:56:27.926Z,94797.78
2019-05-03T02:57:31.458Z,94806.72
2019-05-03T02:58:35.853Z,94799.55
2019-05-03T02:59:39.354Z,94804.78
2019-05-03T03:01:06.279Z,94800.24
2019-05-03T03:02:08.536Z,94805.05
2019-05-03T03:03:12.312Z,94805.09
2019-05-03T03:04:16.066Z,94804.14
2019-05-03T03:05:19.881Z,94807.66
2019-05-03T03:06:26.728Z,94802.12
2019-05-03T03:07:31.706Z,94805.70
2019-05-03T03:08:36.869Z,94806.05
2019-05-03T03:09:41.043Z,94805.34
2019-05-03T03:10:45.655Z,94800.05
2019-05-03T03:11:50.932Z,94804.28
2019-05-03T03:12:57.436Z,94801.02
2019-05-03T03:14:05.713Z,94799.59
2019-05-03T03:15:09.495Z,94805.44
2019-05-03T03:16:15.213Z,94804.14
2019-05-03T03:17:20.689Z,94802.17
2019-05-03T03:18:25.533Z,94802.37
2019-05-03T03:19:30.580Z,94804.03
2019-05-03T03:20:37.088Z,94802.31
2019-05-03T03:21:46.594Z,94797.32
2019-05-03T03:22:55.387Z,94799.91
2019-05-03T03:24:07.150Z,94798.03
2019-05-03T03:25:13.148Z,94796.26
2019-05-03T03:26:33.374Z,94805.05
2019-05-03T03:27:26.948Z,94798.89
2019-05-03T03:28:35.917Z,94800.66
2019-05-03T03:29:41.271Z,94798.23
2019-05-03T03:30:57.192Z,94806.27
2019-05-03T03:32:18.216Z,94801.16
2019-05-03T03:33:20.044Z,94801.70
2019-05-03T03:34:28.075Z,94805.95
2019-05-03T03:35:37.694Z,94806.91
2019-05-03T03:37:01.025Z,94802.37
2019-05-03T03:37:56.457Z,94808.22
2019-05-03T03:39:00.054Z,94806.72
2019-05-03T03:40:06.098Z,94806.27
2019-05-03T03:41:11.393Z,94804.95
2019-05-03T03:42:16.106Z,94807.66
2019-05-03T03:43:21.767Z,94801.64
2019-05-03T03:44:26.725Z,94814.23
2019-05-03T03:45:30.679Z,94805.80
2019-05-03T03:46:35.862Z,94813.26
2019-05-03T03:47:39.397Z,94815.47
2019-05-03T03:48:46.041Z,94814.72
2019-05-03T03:49:51.829Z,94809.75
2019-05-03T03:50:56.318Z,94816.52
2019-05-03T03:52:01.239Z,94807.19
2019-05-03T03:53:07.861Z,94810.22
2019-05-03T03:54:15.542Z,94817.28
2019-05-03T03:55:19.100Z,94807.80
2019-05-03T03:56:25.427Z,94820.72
2019-05-03T03:57:29.211Z,94817.64
2019-05-03T03:58:35.623Z,94818.55
2019-05-03T03:59:38.104Z,94820.80
2019-05-03T04:00:41.593Z,94824.44
2019-05-03T04:01:45.837Z,94820.69
2019-05-03T04:02:49.520Z,94832.11
2019-05-03T04:03:53.088Z,94828.94
2019-05-03T04:04:57.881Z,94822.06
2019-05-03T04:06:01.487Z,94828.99
2019-05-03T04:07:06.535Z,94830.69
2019-05-03T04:08:10.375Z,94826.52
2019-05-03T04:09:16.073Z,94832.63
2019-05-03T04:10:19.036Z,94830.30
2019-05-03T04:11:22.637Z,94831.21
2019-05-03T04:12:26.931Z,94833.18
2019-05-03T04:13:30.874Z,94838.28
2019-05-03T04:14:51.281Z,94840.76
2019-05-03T04:16:02.287Z,94838.19
2019-05-03T04:17:07.397Z,94834.75
2019-05-03T04:18:28.322Z,94836.86
2019-05-03T04:19:36.435Z,94839.08
2019-05-03T04:20:39.167Z,94842.83
2019-05-03T04:21:45.142Z,94840.69
2019-05-03T04:22:48.018Z,94845.55
2019-05-03T04:23:51.588Z,94850.45
2019-05-03T04:24:55.689Z,94843.88
2019-05-03T04:25:59.191Z,94843.27
2019-05-03T04:27:15.672Z,94845.90
2019-05-03T04:28:10.920Z,94847.81
2019-05-03T04:29:16.107Z,94849.13
2019-05-03T04:30:19.709Z,94847.06
2019-05-03T04:31:25.909Z,94853.38
2019-05-03T04:32:29.087Z,94854.53
2019-05-03T04:33:32.689Z,94850.45
2019-05-03T04:34:36.267Z,94845.03
2019-05-03T04:35:39.706Z,94849.80
2019-05-03T04:36:43.210Z,94848.67
2019-05-03T04:37:46.643Z,94847.25
2019-05-03T04:38:50.212Z,94848.87
2019-05-03T04:39:56.007Z,94842.71
2019-05-03T04:40:58.894Z,94844.55
2019-05-03T04:42:02.553Z,94852.17
2019-05-03T04:43:06.425Z,94853.45
2019-05-03T04:44:09.986Z,94853.63
2019-05-03T04:45:16.263Z,94854.03
2019-05-03T04:46:20.478Z,94860.20
2019-05-03T04:47:26.305Z,94852.81
2019-05-03T04:48:29.134Z,94864.38
2019-05-03T04:49:32.637Z,94858.77
2019-05-03T04:50:36.941Z,94856.25
2019-05-03T04:51:40.575Z,94858.31
2019-05-03T04:52:46.323Z,94858.25
2019-05-03T04:53:50.796Z,94858.36
2019-05-03T04:54:56.540Z,94863.77
2019-05-03T04:56:00.272Z,94857.50
2019-05-03T04:57:06.407Z,94863.47
2019-05-03T04:58:09.023Z,94859.13
2019-05-03T04:59:12.624Z,94860.98
2019-05-03T05:00:16.340Z,94865.28
2019-05-03T05:01:19.917Z,94857.40
2019-05-03T05:02:25.903Z,94864.33
2019-05-03T05:03:28.644Z,94861.68
2019-05-03T05:04:32.089Z,94857.96
2019-05-03T05:05:36.349Z,94864.98
2019-05-03T05:06:40.111Z,94863.87
2019-05-03T05:07:45.661Z,94875.44
2019-05-03T05:08:48.771Z,94874.03
2019-05-03T05:09:52.213Z,94869.73
2019-05-03T05:10:56.022Z,94871.80
2019-05-03T05:11:59.453Z,94873.66
2019-05-03T05:13:05.237Z,94873.58
2019-05-03T05:14:09.950Z,94870.67
2019-05-03T05:15:15.589Z,94873.06
2019-05-03T05:16:18.814Z,94876.13
2019-05-03T05:17:27.004Z,94875.80
2019-05-03T05:18:35.484Z,94882.42
2019-05-03T05:19:46.565Z,94881.11
2019-05-03T05:21:00.382Z,94874.33
2019-05-03T05:22:06.054Z,94874.22
2019-05-03T05:23:09.466Z,94879.53
2019-05-03T05:24:15.066Z,94879.93
2019-05-03T05:25:19.839Z,94889.48
2019-05-03T05:26:25.025Z,94888.73
2019-05-03T05:27:30.171Z,94885.64
2019-05-03T05:28:50.049Z,94878.47
2019-05-03T05:29:55.405Z,94887.31
2019-05-03T05:30:59.031Z,94887.61
2019-05-03T05:32:02.484Z,94886.55
2019-05-03T05:33:07.550Z,94885.88
2019-05-03T05:34:11.129Z,94890.52
2019-05-03T05:35:14.628Z,94887.14
2019-05-03T05:36:18.089Z,94884.72
2019-05-03T05:37:21.606Z,94880.07
2019-05-03T05:38:25.760Z,94889.95
2019-05-03T05:39:29.306Z,94886.00
2019-05-03T05:40:34.763Z,94885.48
2019-05-03T05:41:38.285Z,94888.11
2019-05-03T05:42:42.125Z,94884.98
2019-05-03T05:43:45.977Z,94892.37
2019-05-03T05:44:49.483Z,94890.80
2019-05-03T05:45:55.206Z,94893.17
2019-05-03T05:47:06.204Z,94891.69
2019-05-03T05:48:11.637Z,94893.87
2019-05-03T05:49:16.898Z,94900.45
2019-05-03T05:50:25.382Z,94894.94
2019-05-03T05:51:29.243Z,94902.14
2019-05-03T05:52:34.645Z,94900.78
2019-05-03T05:53:38.272Z,94902.64
2019-05-03T05:54:45.463Z,94899.05
2019-05-03T05:55:50.860Z,94897.69
2019-05-03T05:57:01.887Z,94905.12
2019-05-03T05:58:09.845Z,94901.45
2019-05-03T05:59:15.794Z,94899.33
2019-05-03T06:00:25.757Z,94904.48
2019-05-03T06:01:35.330Z,94904.63
2019-05-03T06:02:38.940Z,94900.97
2019-05-03T06:03:42.401Z,94907.61
2019-05-03T06:04:46.024Z,94909.33
2019-05-03T06:05:49.943Z,94907.40
2019-05-03T06:06:58.151Z,94908.98
2019-05-03T06:08:15.494Z,94911.76
2019-05-03T06:09:23.112Z,94912.98
2019-05-03T06:10:28.451Z,94913.29
2019-05-03T06:11:34.766Z,94916.06
2019-05-03T06:12:42.668Z,94921.47
2019-05-03T06:13:50.644Z,94913.07
2019-05-03T06:14:55.815Z,94913.58
2019-05-03T06:16:05.169Z,94914.34
2019-05-03T06:17:19.962Z,94919.95
2019-05-03T06:18:31.186Z,94919.90
2019-05-03T06:19:45.824Z,94919.04
2019-05-03T06:20:51.219Z,94919.95
2019-05-03T06:21:56.379Z,94919.70
2019-05-03T06:23:07.610Z,94924.81
2019-05-03T06:24:28.758Z,94925.61
2019-05-03T06:25:35.373Z,94924.66
2019-05-03T06:26:44.332Z,94927.98
2019-05-03T06:27:47.817Z,94926.73
2019-05-03T06:28:51.634Z,94926.38
2019-05-03T06:29:57.188Z,94925.47
2019-05-03T06:31:08.349Z,94926.07
2019-05-03T06:32:31.340Z,94926.07
2019-05-03T06:33:35.329Z,94925.11
2019-05-03T06:34:39.281Z,94927.08
2019-05-03T06:35:44.574Z,94932.83
2019-05-03T06:36:51.538Z,94931.89
2019-05-03T06:37:55.144Z,94925.67
2019-05-03T06:38:58.789Z,94926.78
2019-05-03T06:40:05.632Z,94924.70
2019-05-03T06:41:07.779Z,94928.25
2019-05-03T06:42:16.011Z,94928.18
2019-05-03T06:43:17.071Z,94925.16
2019-05-03T06:44:24.851Z,94932.17
2019-05-03T06:45:25.993Z,94931.52
2019-05-03T06:46:48.054Z,94931.16
2019-05-03T06:47:51.684Z,94929.26
2019-05-03T06:48:55.738Z,94930.70
2019-05-03T06:49:59.833Z,94929.75
2019-05-03T06:51:08.703Z,94928.23
2019-05-03T06:52:09.125Z,94927.80
2019-05-03T06:53:13.575Z,94930.27
2019-05-03T06:54:20.502Z,94928.69
2019-05-03T06:55:24.779Z,94928.09
2019-05-03T06:56:29.212Z,94931.52
2019-05-03T06:57:32.868Z,94927.33
2019-05-03T06:58:36.725Z,94925.59
2019-05-03T06:59:47.587Z,94924.34
2019-05-03T07:00:52.779Z,94925.09
2019-05-03T07:02:05.603Z,94928.23
2019-05-03T07:03:15.083Z,94930.25
2019-05-03T07:04:26.418Z,94928.97
2019-05-03T07:05:31.521Z,94931.55
2019-05-03T07:06:40.860Z,94933.73
2019-05-03T07:07:48.777Z,94930.41
2019-05-03T07:08:59.578Z,94933.25
2019-05-03T07:10:21.213Z,94933.94
2019-05-03T07:11:24.973Z,94935.72
2019-05-03T07:12:30.346Z,94933.23
2019-05-03T07:13:34.635Z,94937.69
2019-05-03T07:14:38.400Z,94927.57
2019-05-03T07:15:41.867Z,94934.19
2019-05-03T07:16:45.642Z,94930.95
2019-05-03T07:17:49.547Z,94932.13
2019-05-03T07:18:56.492Z,94929.70
2019-05-03T07:19:58.232Z,94931.00
2019-05-03T07:21:01.690Z,94932.91
2019-05-03T07:22:05.265Z,94930.73
2019-05-03T07:23:08.716Z,94942.82
2019-05-03T07:24:12.224Z,94937.69
2019-05-03T07:25:15.802Z,94939.50
2019-05-03T07:26:19.257Z,94935.30
2019-05-03T07:27:24.630Z,94935.45
2019-05-03T07:28:27.864Z,94939.24
2019-05-03T07:29:31.379Z,94936.22
2019-05-03T07:30:36.945Z,94940.52
2019-05-03T07:31:40.212Z,94942.26
2019-05-03T07:32:45.299Z,94936.03
2019-05-03T07:33:48.759Z,94940.00
2019-05-03T07:34:52.205Z,94943.95
2019-05-03T07:35:55.721Z,94940.26
2019-05-03T07:36:59.215Z,94941.63
2019-05-03T07:38:02.718Z,94941.47
2019-05-03T07:39:08.084Z,94941.36
2019-05-03T07:40:11.870Z,94942.56
2019-05-03T07:41:15.442Z,94942.82
2019-05-03T07:42:18.895Z,94942.63
2019-05-03T07:43:24.385Z,94943.51
2019-05-03T07:44:27.679Z,94942.56
2019-05-03T07:45:31.153Z,94943.23
2019-05-03T07:46:34.949Z,94945.16
2019-05-03T07:47:38.482Z,94948.83
2019-05-03T07:48:42.001Z,94947.07
2019-05-03T07:49:45.442Z,94948.16
2019-05-03T07:50:48.954Z,94953.76
2019-05-03T07:51:52.405Z,94949.97
2019-05-03T07:52:56.001Z,94949.72
2019-05-03T07:53:59.563Z,94948.96
2019-05-03T07:55:04.632Z,94945.06
2019-05-03T07:56:12.664Z,94949.72
2019-05-03T07:57:18.240Z,94951.98
2019-05-03T07:58:35.321Z,94953.91
2019-05-03T07:59:38.697Z,94958.66
2019-05-03T08:00:44.419Z,94952.05
2019-05-03T08:01:49.038Z,94956.50
2019-05-03T08:02:52.596Z,94960.54
2019-05-03T08:03:56.032Z,94956.23
2019-05-03T08:04:59.480Z,94957.45
2019-05-03T08:06:04.744Z,94951.88
2019-05-03T08:07:19.873Z,94956.09
2019-05-03T08:08:14.927Z,94954.91
2019-05-03T08:09:18.800Z,94950.59
2019-05-03T08:10:22.309Z,94948.52
2019-05-03T08:11:25.819Z,94950.48
2019-05-03T08:12:29.325Z,94956.87
2019-05-03T08:13:32.933Z,94945.64
2019-05-03T08:14:36.371Z,94948.03
2019-05-03T08:15:39.814Z,94951.20
2019-05-03T08:16:45.497Z,94946.37
2019-05-03T08:17:48.807Z,94946.39
2019-05-03T08:18:52.275Z,94952.61
2019-05-03T08:19:55.745Z,94948.61
2019-05-03T08:20:59.374Z,94946.18
2019-05-03T08:22:04.600Z,94946.77
2019-05-03T08:23:08.025Z,94944.02
2019-05-03T08:24:11.488Z,94947.23
2019-05-03T08:25:15.025Z,94948.46
2019-05-03T08:26:18.449Z,94952.55
2019-05-03T08:27:21.959Z,94944.74
2019-05-03T08:28:25.402Z,94946.11
2019-05-03T08:29:28.957Z,94955.94
2019-05-03T08:30:48.647Z,94951.52
2019-05-03T08:31:56.259Z,94951.56
2019-05-03T08:33:05.554Z,94950.52
2019-05-03T08:34:10.667Z,94954.95
2019-05-03T08:35:15.882Z,94950.58
2019-05-03T08:36:19.334Z,94957.97
2019-05-03T08:37:28.063Z,94959.59
2019-05-03T08:38:31.791Z,94955.30
2019-05-03T08:39:35.786Z,94955.65
2019-05-03T08:40:41.136Z,94954.19
2019-05-03T08:41:46.217Z,94951.42
2019-05-03T08:42:49.673Z,94950.34
2019-05-03T08:43:54.964Z,94952.83
2019-05-03T08:44:58.535Z,94954.08
2019-05-03T08:46:02.050Z,94953.58
2019-05-03T08:47:05.560Z,94950.13
2019-05-03T08:48:09.137Z,94949.61
2019-05-03T08:49:12.562Z,94962.02
2019-05-03T08:50:21.222Z,94957.08
2019-05-03T08:51:21.457Z,94952.94
2019-05-03T08:52:25.033Z,94952.73
2019-05-03T08:53:28.490Z,94956.56
2019-05-03T08:54:31.941Z,94956.87
2019-05-03T08:55:35.435Z,94955.20
2019-05-03T08:56:38.844Z,94956.61
2019-05-03T08:57:44.602Z,94959.88
2019-05-03T08:58:47.579Z,94960.72
2019-05-03T08:59:51.027Z,94962.17
2019-05-03T09:00:55.013Z,94959.08
2019-05-03T09:01:58.934Z,94959.08
2019-05-03T09:03:05.258Z,94959.88
2019-05-03T09:04:08.840Z,94956.23
2019-05-03T09:05:12.632Z,94962.69
2019-05-03T09:06:16.095Z,94959.45
2019-05-03T09:07:19.639Z,94956.72
2019-05-03T09:08:24.861Z,94964.41
2019-05-03T09:09:29.861Z,94958.23
2019-05-03T09:10:51.281Z,94960.18
2019-05-03T09:11:55.619Z,94954.87
2019-05-03T09:13:09.574Z,94954.92
2019-05-03T09:14:17.243Z,94957.83
2019-05-03T09:15:21.762Z,94965.94
2019-05-03T09:16:25.367Z,94962.73
2019-05-03T09:17:28.883Z,94968.83
2019-05-03T09:18:32.349Z,94966.76
2019-05-03T09:19:35.789Z,94973.30
2019-05-03T09:20:39.258Z,94969.43
2019-05-03T09:21:42.779Z,94974.44
2019-05-03T09:22:46.236Z,94973.42
2019-05-03T09:23:49.727Z,94981.16
2019-05-03T09:24:54.556Z,94979.30
2019-05-03T09:25:58.176Z,94976.20
2019-05-03T09:27:01.801Z,94968.31
2019-05-03T09:28:05.982Z,94973.06
2019-05-03T09:29:09.407Z,94972.26
2019-05-03T09:30:14.541Z,94977.52
2019-05-03T09:31:18.104Z,94984.68
2019-05-03T09:32:21.627Z,94975.47
2019-05-03T09:33:25.159Z,94972.41
2019-05-03T09:34:28.671Z,94978.66
2019-05-03T09:35:35.253Z,94981.89
2019-05-03T09:36:37.418Z,94979.42
2019-05-03T09:37:40.836Z,94985.03
2019-05-03T09:38:45.843Z,94983.56
2019-05-03T09:39:49.356Z,94987.30
2019-05-03T09:40:54.597Z,94977.75
2019-05-03T09:41:58.128Z,94977.91
2019-05-03T09:43:01.637Z,94985.12
2019-05-03T09:44:05.321Z,94979.50
2019-05-03T09:45:09.021Z,94981.57
2019-05-03T09:46:14.394Z,94985.08
2019-05-03T09:47:17.638Z,94981.97
2019-05-03T09:48:21.071Z,94976.10
2019-05-03T09:49:25.328Z,94982.60
2019-05-03T09:50:28.993Z,94983.84
2019-05-03T09:51:32.430Z,94989.41
2019-05-03T09:52:36.076Z,94985.79
2019-05-03T09:53:46.931Z,94993.23
2019-05-03T09:54:52.021Z,94987.77
2019-05-03T09:55:55.686Z,94991.69
2019-05-03T09:57:01.879Z,94991.29
2019-05-03T09:58:05.690Z,94993.70
2019-05-03T09:59:09.130Z,94989.25
2019-05-03T10:00:13.587Z,94991.09
2019-05-03T10:01:17.019Z,94987.11
2019-05-03T10:02:21.344Z,94989.77
2019-05-03T10:03:24.862Z,94989.85
2019-05-03T10:04:28.369Z,94983.98
2019-05-03T10:05:31.851Z,94989.20
2019-05-03T10:06:35.936Z,94988.75
2019-05-03T10:07:39.514Z,94991.32
2019-05-03T10:08:45.292Z,94987.95
2019-05-03T10:09:48.110Z,94989.52
2019-05-03T10:11:09.243Z,94990.87
2019-05-03T10:12:25.283Z,94991.19
2019-05-03T10:13:28.319Z,94995.78
2019-05-03T10:14:31.836Z,94995.67
2019-05-03T10:15:39.644Z,94991.78
2019-05-03T10:16:47.585Z,94996.80
2019-05-03T10:17:52.672Z,94993.70
2019-05-03T10:18:56.176Z,94989.10
2019-05-03T10:19:59.615Z,94994.86
2019-05-03T10:21:05.088Z,94995.11
2019-05-03T10:22:08.571Z,94991.23
2019-05-03T10:23:14.865Z,94991.52
2019-05-03T10:24:18.339Z,94995.17
2019-05-03T10:25:21.908Z,94998.03
2019-05-03T10:26:26.403Z,94998.42
2019-05-03T10:27:31.557Z,94997.06
2019-05-03T10:28:35.155Z,95000.87
2019-05-03T10:29:38.579Z,94996.89
2019-05-03T10:30:42.015Z,94998.09
2019-05-03T10:31:47.082Z,95000.80
2019-05-03T10:32:52.240Z,94995.84
2019-05-03T10:33:59.979Z,94999.86
2019-05-03T10:35:05.798Z,94998.34
2019-05-03T10:36:09.287Z,94998.82
2019-05-03T10:37:31.646Z,94998.20
2019-05-03T10:38:35.251Z,94996.92
2019-05-03T10:39:38.892Z,95003.03
2019-05-03T10:40:42.330Z,95003.39
2019-05-03T10:41:45.833Z,94992.91
2019-05-03T10:42:49.358Z,94997.96
2019-05-03T10:43:52.952Z,94999.34
2019-05-03T10:44:56.462Z,94995.30
2019-05-03T10:45:59.893Z,94992.19
2019-05-03T10:47:05.488Z,94989.10
2019-05-03T10:48:08.741Z,94992.85
2019-05-03T10:49:12.165Z,94992.28
2019-05-03T10:50:15.742Z,94992.02
2019-05-03T10:51:19.169Z,94994.81
2019-05-03T10:52:25.748Z,94995.67
2019-05-03T10:53:39.558Z,94989.72
2019-05-03T10:54:42.998Z,94992.38
2019-05-03T10:55:57.039Z,94991.28
2019-05-03T10:57:15.891Z,94994.37
2019-05-03T10:58:19.700Z,94995.67
2019-05-03T10:59:24.808Z,94999.17
2019-05-03T11:00:50.334Z,94995.02
2019-05-03T11:01:45.200Z,95003.11
2019-05-03T11:02:56.207Z,94995.88
2019-05-03T11:03:59.669Z,94992.87
2019-05-03T11:05:05.126Z,94997.28
2019-05-03T11:06:08.649Z,94999.01
2019-05-03T11:07:12.156Z,94994.81
2019-05-03T11:08:15.594Z,94995.42
2019-05-03T11:09:19.050Z,94995.46
2019-05-03T11:10:22.554Z,94985.78
2019-05-03T11:11:26.035Z,94995.16
2019-05-03T11:12:29.528Z,94991.64
2019-05-03T11:13:34.875Z,94985.61
2019-05-03T11:14:38.430Z,94991.36
2019-05-03T11:15:41.927Z,94988.27
2019-05-03T11:16:46.186Z,94994.31
2019-05-03T11:17:49.769Z,94996.33
2019-05-03T11:18:54.886Z,94996.08
2019-05-03T11:19:58.505Z,94991.28
2019-05-03T11:21:01.940Z,94994.88
2019-05-03T11:22:05.701Z,94994.48
2019-05-03T11:23:09.603Z,94991.58
2019-05-03T11:24:14.736Z,94985.97
2019-05-03T11:25:18.619Z,94984.59
2019-05-03T11:26:22.042Z,94992.70
2019-05-03T11:27:30.082Z,94989.91
2019-05-03T11:28:35.360Z,94990.17
2019-05-03T11:29:39.258Z,94981.73
2019-05-03T11:30:53.125Z,94983.68
2019-05-03T11:31:55.126Z,94985.16
2019-05-03T11:33:06.302Z,94988.72
2019-05-03T11:34:11.486Z,94986.37
2019-05-03T11:35:16.539Z,94987.97
2019-05-03T11:36:21.683Z,94989.94
2019-05-03T11:37:41.534Z,94986.95
2019-05-03T11:38:45.791Z,94986.59
2019-05-03T11:39:49.957Z,94990.20
2019-05-03T11:40:55.819Z,94987.33
2019-05-03T11:41:59.456Z,94989.11
2019-05-03T11:43:04.669Z,94983.47
2019-05-03T11:44:26.265Z,94983.37
2019-05-03T11:45:29.932Z,94983.64
2019-05-03T11:46:35.397Z,94985.94
2019-05-03T11:47:39.417Z,94985.56
2019-05-03T11:48:43.057Z,94977.19
2019-05-03T11:49:46.663Z,94989.57
2019-05-03T11:50:50.266Z,94984.36
2019-05-03T11:51:55.638Z,94987.66
2019-05-03T11:52:59.136Z,94985.00
2019-05-03T11:54:05.795Z,94988.77
2019-05-03T11:55:11.512Z,94984.59
2019-05-03T11:56:14.824Z,94980.45
2019-05-03T11:57:23.984Z,94983.88
2019-05-03T11:58:28.337Z,94986.61
2019-05-03T11:59:32.016Z,94983.73
2019-05-03T12:00:37.262Z,94988.72
2019-05-03T12:01:51.738Z,94983.88
2019-05-03T12:02:57.021Z,94981.77
2019-05-03T12:04:00.453Z,94986.48
2019-05-03T12:05:11.884Z,94986.39
2019-05-03T12:06:15.786Z,94981.73
2019-05-03T12:07:39.955Z,94983.03
2019-05-03T12:08:39.238Z,94983.03
2019-05-03T12:09:45.126Z,94979.41
2019-05-03T12:10:57.185Z,94978.34
2019-05-03T12:11:55.502Z,94980.34
2019-05-03T12:13:05.081Z,94974.14
2019-05-03T12:14:12.505Z,94977.22
2019-05-03T12:15:16.765Z,94978.37
2019-05-03T12:16:32.812Z,94978.36
2019-05-03T12:17:29.687Z,94980.93
2019-05-03T12:18:48.041Z,94977.34
2019-05-03T12:19:39.821Z,94973.23
2019-05-03T12:20:46.537Z,94980.80
2019-05-03T12:21:49.875Z,94986.70
2019-05-03T12:22:54.470Z,94979.03
2019-05-03T12:23:58.943Z,94977.17
2019-05-03T12:25:09.383Z,94979.38
2019-05-03T12:26:13.043Z,94978.36
2019-05-03T12:27:15.053Z,94976.75
2019-05-03T12:28:19.037Z,94978.41
2019-05-03T12:29:24.474Z,94980.83
2019-05-03T12:30:28.021Z,94977.84
2019-05-03T12:31:38.062Z,94980.63
2019-05-03T12:32:37.129Z,94978.97
2019-05-03T12:33:40.912Z,94979.73
2019-05-03T12:34:44.565Z,94979.52
2019-05-03T12:35:48.546Z,94987.02
2019-05-03T12:36:52.210Z,94983.38
2019-05-03T12:37:55.923Z,94987.90
2019-05-03T12:38:59.569Z,94988.78
2019-05-03T12:40:05.526Z,94986.02
2019-05-03T12:41:09.513Z,94986.03
2019-05-03T12:42:14.866Z,94985.10
2019-05-03T12:43:18.492Z,94987.01
2019-05-03T12:44:21.948Z,94981.31
2019-05-03T12:45:25.461Z,94990.26
2019-05-03T12:46:29.030Z,94985.00
2019-05-03T12:47:34.487Z,94982.07
2019-05-03T12:48:37.724Z,94981.53
2019-05-03T12:49:41.199Z,94981.05